Time;durP1;ratioP1;P1;durP2;ratioP2;P2;SDS_P1;SDS_P2;PMS_P1;PMS_P2;Temp;Humidity;BMP_temperature;BMP_pressure;BME280_temperature;BME280_humidity;BME280_pressure;Samples;Min_cycle;Max_cycle;Signal;HPM_P1;HPM_P2
2023/01/10 00:00:06;;;;;;;13.98;3.17;;;3.90;99.90;;;;;;5072131;28;20444;-67
2023/01/10 00:02:33;;;;;;;19.85;4.07;;;3.90;99.90;;;;;;5072573;28;20382;-67
2023/01/10 00:05:00;;;;;;;11.63;4.57;;;3.80;99.90;;;;;;5072477;28;20480;-68
2023/01/10 00:07:27;;;;;;;17.30;3.70;;;3.80;99.90;;;;;;5071904;28;20451;-68
2023/01/10 00:09:53;;;;;;;12.52;2.92;;;3.80;99.90;;;;;;5072130;28;20048;-68
2023/01/10 00:15:07;;;;;;;12.02;4.55;;;3.80;99.90;;;;;;5071260;28;20054;-67
2023/01/10 00:17:34;;;;;;;12.80;3.35;;;3.70;99.90;;;;;;5072098;28;20155;-68
2023/01/10 00:20:01;;;;;;;12.20;3.00;;;3.70;99.90;;;;;;5072664;28;20044;-68
2023/01/10 00:22:28;;;;;;;13.85;3.50;;;3.70;99.90;;;;;;5072257;28;20492;-68
2023/01/10 00:24:55;;;;;;;20.58;3.72;;;3.70;99.90;;;;;;5071974;28;20416;-68
2023/01/10 00:27:22;;;;;;;12.57;3.08;;;3.70;99.90;;;;;;5072590;28;20036;-68
2023/01/10 00:29:51;;;;;;;11.50;3.25;;;3.80;99.90;;;;;;5072230;28;20080;-68
2023/01/10 00:32:19;;;;;;;15.00;3.58;;;3.80;99.90;;;;;;5071615;28;20049;-68
2023/01/10 00:34:46;;;;;;;15.30;3.92;;;3.90;99.90;;;;;;5071068;28;20048;-68
2023/01/10 00:37:13;;;;;;;15.85;3.35;;;3.90;99.90;;;;;;5071767;28;20036;-68
2023/01/10 00:39:40;;;;;;;17.48;3.78;;;4.00;99.90;;;;;;5073068;28;20052;-68
2023/01/10 00:44:53;;;;;;;13.02;3.10;;;4.10;99.90;;;;;;5070639;28;20051;-68
2023/01/10 00:47:21;;;;;;;16.40;3.50;;;4.00;99.90;;;;;;5071321;28;20048;-69
2023/01/10 00:49:48;;;;;;;18.92;4.85;;;4.00;99.90;;;;;;5070892;28;20055;-68
2023/01/10 00:52:15;;;;;;;14.07;4.53;;;4.00;99.90;;;;;;5071675;28;20094;-68
2023/01/10 00:54:42;;;;;;;21.13;5.38;;;4.10;99.90;;;;;;5070441;28;20054;-68
2023/01/10 00:57:09;;;;;;;20.88;4.15;;;4.20;99.90;;;;;;5074597;28;20044;-67
2023/01/10 00:59:36;;;;;;;21.30;4.82;;;4.30;99.90;;;;;;5092931;28;20488;-68
2023/01/10 01:02:03;;;;;;;13.55;4.00;;;4.40;99.90;;;;;;5074190;28;20085;-69
2023/01/10 01:04:33;;;;;;;16.52;4.30;;;4.40;99.90;;;;;;5074661;28;20101;-68
2023/01/10 01:07:00;;;;;;;13.63;4.20;;;4.50;99.90;;;;;;5074768;28;20048;-68
2023/01/10 01:09:27;;;;;;;16.33;4.65;;;4.60;99.90;;;;;;5074024;28;20135;-68
2023/01/10 01:11:55;;;;;;;14.15;4.13;;;4.60;99.90;;;;;;5074600;28;20052;-67
2023/01/10 01:14:22;;;;;;;15.68;4.40;;;4.70;99.90;;;;;;5092535;28;20072;-67
2023/01/10 01:16:49;;;;;;;15.40;4.70;;;4.70;99.90;;;;;;5089488;28;20545;-67
2023/01/10 01:19:16;;;;;;;17.42;3.90;;;4.80;99.90;;;;;;5074168;28;20043;-68
2023/01/10 01:21:44;;;;;;;16.27;4.50;;;4.80;99.90;;;;;;5072025;28;20414;-67
2023/01/10 01:24:11;;;;;;;19.52;3.95;;;4.80;99.90;;;;;;5091397;28;20506;-68
2023/01/10 01:26:38;;;;;;;18.98;3.78;;;4.80;99.90;;;;;;5074199;28;20048;-68
2023/01/10 01:29:05;;;;;;;13.30;3.75;;;4.70;99.90;;;;;;5092307;28;20094;-68
2023/01/10 01:31:32;;;;;;;11.73;4.18;;;4.70;99.90;;;;;;5073844;28;20123;-67
2023/01/10 01:33:59;;;;;;;18.33;3.97;;;4.70;99.90;;;;;;5091984;28;20117;-67
2023/01/10 01:36:26;;;;;;;14.45;3.97;;;4.60;99.90;;;;;;5074108;28;20093;-67
2023/01/10 01:38:54;;;;;;;17.65;4.45;;;4.60;99.90;;;;;;5073279;28;20105;-68
2023/01/10 01:44:07;;;;;;;15.63;4.07;;;4.70;99.90;;;;;;5090698;28;20044;-68
2023/01/10 01:46:38;;;;;;;13.93;3.58;;;4.70;99.90;;;;;;5074017;28;20059;-67
2023/01/10 01:49:09;;;;;;;13.55;3.75;;;4.70;99.90;;;;;;5089803;28;20036;-68
2023/01/10 01:51:36;;;;;;;10.43;2.95;;;4.70;99.90;;;;;;5073271;28;20055;-68
2023/01/10 01:54:07;;;;;;;17.33;3.78;;;4.60;99.90;;;;;;5073701;28;20059;-67
2023/01/10 01:56:37;;;;;;;20.35;3.85;;;4.60;99.90;;;;;;5071698;28;20043;-68
2023/01/10 01:59:09;;;;;;;20.38;4.47;;;4.50;99.90;;;;;;5090991;28;20063;-67
2023/01/10 02:01:40;;;;;;;15.05;4.03;;;4.50;99.90;;;;;;5073858;28;20105;-67
2023/01/10 02:04:11;;;;;;;22.65;4.80;;;4.60;99.90;;;;;;5091631;28;20492;-68
2023/01/10 02:06:38;;;;;;;18.40;3.88;;;4.70;99.90;;;;;;5089742;28;20109;-67
2023/01/10 02:09:15;;;;;;;14.82;4.40;;;4.70;99.90;;;;;;5091760;28;20056;-68
2023/01/10 02:11:42;;;;;;;15.90;4.05;;;4.80;99.90;;;;;;5073986;28;20467;-67
2023/01/10 02:14:11;;;;;;;16.90;4.40;;;4.80;99.90;;;;;;5072794;28;20094;-68
2023/01/10 02:16:38;;;;;;;15.73;3.67;;;4.80;99.90;;;;;;5071948;28;20048;-68
2023/01/10 02:19:13;;;;;;;16.45;4.22;;;4.90;99.90;;;;;;5072774;28;20450;-67
2023/01/10 02:22:16;;;;;;;20.33;3.65;;;5.00;99.90;;;;;;5073814;28;20055;-68
2023/01/10 02:25:23;;;;;;;21.58;3.80;;;5.00;99.90;;;;;;5072195;28;20052;-67
2023/01/10 02:28:14;;;;;;;22.10;4.63;;;5.10;99.90;;;;;;5070157;28;20048;-67
2023/01/10 02:30:54;;;;;;;17.55;3.53;;;5.10;99.90;;;;;;5089650;28;20081;-68
2023/01/10 02:33:29;;;;;;;12.73;3.58;;;5.10;99.90;;;;;;5071666;28;20510;-68
2023/01/10 02:36:20;;;;;;;17.27;3.38;;;5.00;99.90;;;;;;5094359;28;20105;-69
2023/01/10 02:38:58;;;;;;;15.13;3.40;;;5.00;99.90;;;;;;5093715;28;20496;-69
2023/01/10 02:41:31;;;;;;;13.93;3.85;;;4.90;99.90;;;;;;5093563;28;20055;-68
2023/01/10 02:44:04;;;;;;;12.25;3.97;;;4.90;99.90;;;;;;5075775;28;20055;-67
2023/01/10 02:46:32;;;;;;;12.85;4.18;;;4.90;99.90;;;;;;5075274;28;20055;-68
2023/01/10 02:49:00;;;;;;;14.10;4.13;;;4.90;99.90;;;;;;5076215;28;20081;-68
2023/01/10 02:51:28;;;;;;;26.27;4.55;;;4.80;99.90;;;;;;5077104;28;20048;-67
2023/01/10 02:54:00;;;;;;;11.00;4.22;;;4.90;99.90;;;;;;5090688;28;20048;-68
2023/01/10 02:56:58;;;;;;;18.63;4.47;;;4.90;99.90;;;;;;5076772;28;20139;-68
2023/01/10 02:59:48;;;;;;;11.93;3.65;;;4.90;99.90;;;;;;5075115;28;20051;-68
2023/01/10 03:02:31;;;;;;;16.52;3.70;;;4.90;99.90;;;;;;5092451;28;20484;-67
2023/01/10 03:05:09;;;;;;;17.85;4.93;;;4.90;99.90;;;;;;5075960;28;20413;-68
2023/01/10 03:07:43;;;;;;;17.73;3.97;;;5.00;99.90;;;;;;5094637;28;20075;-68
2023/01/10 03:10:18;;;;;;;15.73;3.28;;;5.00;99.90;;;;;;5094071;28;20040;-68
2023/01/10 03:12:51;;;;;;;13.23;3.78;;;5.00;99.90;;;;;;5076942;28;20056;-68
2023/01/10 03:15:20;;;;;;;18.55;4.53;;;5.00;99.90;;;;;;5094212;28;20399;-68
2023/01/10 03:17:51;;;;;;;25.65;4.63;;;5.00;99.90;;;;;;5092762;28;20040;-67
2023/01/10 03:20:21;;;;;;;12.90;3.75;;;5.20;99.90;;;;;;5094798;28;20055;-67
2023/01/10 03:22:49;;;;;;;14.45;3.92;;;5.20;99.90;;;;;;5076160;28;20052;-67
2023/01/10 03:25:21;;;;;;;15.05;3.97;;;5.20;99.90;;;;;;5092082;28;20051;-67
2023/01/10 03:27:55;;;;;;;14.80;3.50;;;5.20;99.90;;;;;;5076712;28;20059;-67
2023/01/10 03:30:28;;;;;;;17.48;4.57;;;5.20;99.90;;;;;;5075738;28;20052;-67
2023/01/10 03:32:56;;;;;;;20.88;4.38;;;5.30;99.90;;;;;;5094498;28;20048;-67
2023/01/10 03:35:34;;;;;;;12.43;3.30;;;5.30;99.90;;;;;;5094207;28;20487;-68
2023/01/10 03:38:08;;;;;;;17.67;3.92;;;5.40;99.90;;;;;;5074364;28;20048;-67
2023/01/10 03:40:41;;;;;;;21.55;3.28;;;5.40;99.90;;;;;;5094497;28;20409;-67
2023/01/10 03:46:04;;;;;;;14.98;4.50;;;5.50;99.90;;;;;;5091684;28;20380;-68
2023/01/10 03:48:36;;;;;;;23.10;3.70;;;5.50;99.90;;;;;;5076153;28;20062;-67
2023/01/10 03:51:06;;;;;;;9.35;2.92;;;5.50;99.90;;;;;;5075247;28;20044;-67
2023/01/10 03:53:34;;;;;;;;;;;5.50;99.90;;;;;;5076461;28;20059;-67
2023/01/10 03:56:01;;;;;;;12.63;3.83;;;5.50;99.90;;;;;;5091980;28;20000;-67
2023/01/10 03:58:29;;;;;;;15.50;3.92;;;5.50;99.90;;;;;;5074912;28;20055;-68
2023/01/10 04:00:56;;;;;;;16.00;4.13;;;5.50;99.90;;;;;;5093821;28;20043;-67
2023/01/10 04:03:23;;;;;;;14.57;3.72;;;5.50;99.90;;;;;;5075672;28;20484;-72
2023/01/10 04:05:51;;;;;;;11.43;3.80;;;5.50;99.90;;;;;;5074955;28;20059;-72
2023/01/10 04:08:19;;;;;;;10.07;3.38;;;5.50;99.90;;;;;;5093658;28;20036;-72
2023/01/10 04:10:48;;;;;;;14.30;4.03;;;5.40;99.90;;;;;;5093633;28;20051;-71
2023/01/10 04:13:15;;;;;;;14.25;3.78;;;5.40;99.90;;;;;;5090873;28;20052;-72
2023/01/10 04:15:42;;;;;;;13.57;3.90;;;5.40;99.90;;;;;;5075474;28;20048;-71
2023/01/10 04:18:09;;;;;;;15.90;3.80;;;5.30;99.90;;;;;;5093508;28;20055;-71
2023/01/10 04:20:36;;;;;;;11.63;3.65;;;5.30;99.90;;;;;;5074721;28;20514;-71
2023/01/10 04:23:03;;;;;;;10.75;3.47;;;5.30;99.90;;;;;;5091344;28;20044;-71
2023/01/10 04:25:31;;;;;;;14.13;4.20;;;5.30;99.90;;;;;;5092622;28;20143;-71
2023/01/10 04:27:58;;;;;;;9.63;3.20;;;5.30;99.90;;;;;;5075197;28;20054;-70
2023/01/10 04:30:26;;;;;;;7.07;3.42;;;5.30;99.90;;;;;;5075333;28;20044;-71
2023/01/10 04:32:53;;;;;;;13.25;3.70;;;5.30;99.90;;;;;;5085200;28;20098;-67
2023/01/10 04:35:19;;;;;;;15.85;4.00;;;5.20;99.90;;;;;;5060253;28;20518;-66
2023/01/10 04:37:46;;;;;;;12.27;3.47;;;5.10;99.90;;;;;;5069430;28;20423;-67
2023/01/10 04:40:15;;;;;;;15.95;3.42;;;5.10;99.90;;;;;;5084092;28;20036;-67
2023/01/10 04:42:44;;;;;;;15.05;3.78;;;5.10;99.90;;;;;;5085501;28;20499;-67
2023/01/10 04:45:13;;;;;;;14.20;4.35;;;5.10;99.90;;;;;;5086118;28;20044;-67
2023/01/10 04:47:40;;;;;;;18.20;3.80;;;5.00;99.90;;;;;;5089674;28;20048;-68
2023/01/10 04:50:07;;;;;;;18.50;3.65;;;5.10;99.90;;;;;;5068702;28;20051;-68
2023/01/10 04:52:34;;;;;;;18.08;4.43;;;5.10;99.90;;;;;;5073015;28;20052;-67
2023/01/10 04:55:01;;;;;;;14.52;3.60;;;5.10;99.90;;;;;;5067273;28;20059;-67
2023/01/10 04:57:28;;;;;;;16.75;3.80;;;5.20;99.90;;;;;;5087163;28;20048;-66
2023/01/10 04:59:56;;;;;;;15.43;4.00;;;5.30;99.90;;;;;;5067439;28;20051;-66
2023/01/10 05:02:23;;;;;;;16.52;3.92;;;5.30;99.90;;;;;;5071634;28;20048;-67
2023/01/10 05:04:50;;;;;;;17.90;4.75;;;5.40;99.90;;;;;;5069994;28;20408;-67
2023/01/10 05:07:17;;;;;;;15.38;4.20;;;5.40;99.90;;;;;;5086929;28;20093;-66
2023/01/10 05:09:44;;;;;;;17.20;4.93;;;5.40;99.90;;;;;;5068118;28;20052;-66
2023/01/10 05:12:10;;;;;;;13.05;3.95;;;5.40;99.90;;;;;;5068700;28;20098;-67
2023/01/10 05:14:37;;;;;;;17.42;4.38;;;5.40;99.90;;;;;;5084618;28;20044;-67
2023/01/10 05:17:06;;;;;;;14.10;3.22;;;5.40;99.90;;;;;;5085516;28;20160;-67
2023/01/10 05:19:32;;;;;;;13.57;3.65;;;5.40;99.90;;;;;;5085279;28;20044;-67
2023/01/10 05:21:59;;;;;;;10.52;3.42;;;5.40;99.90;;;;;;5084666;28;20055;-67
2023/01/10 05:24:26;;;;;;;10.80;3.08;;;5.40;99.90;;;;;;5086520;28;20054;-68
2023/01/10 05:26:53;;;;;;;13.35;3.63;;;5.60;99.90;;;;;;5066347;28;20051;-67
2023/01/10 05:29:20;;;;;;;13.98;4.43;;;5.50;99.90;;;;;;5068448;28;20051;-68
2023/01/10 05:31:47;;;;;;;11.90;4.03;;;5.50;99.90;;;;;;5084249;28;20044;-67
2023/01/10 05:34:15;;;;;;;11.05;3.30;;;5.50;99.90;;;;;;5088222;28;20052;-67
2023/01/10 05:36:42;;;;;;;11.85;2.97;;;5.50;99.90;;;;;;5071313;28;20050;-67
2023/01/10 05:39:09;;;;;;;11.65;4.05;;;5.60;99.90;;;;;;5085316;28;20044;-67
2023/01/10 05:41:36;;;;;;;10.43;3.92;;;5.50;99.90;;;;;;5068873;28;20040;-68
2023/01/10 05:44:03;;;;;;;14.73;3.88;;;5.60;99.90;;;;;;5066868;28;20075;-67
2023/01/10 05:46:30;;;;;;;13.95;3.60;;;5.60;99.90;;;;;;5084646;28;20047;-67
2023/01/10 05:48:56;;;;;;;10.35;3.35;;;5.60;99.90;;;;;;5069774;28;20476;-67
2023/01/10 05:51:25;;;;;;;16.10;3.50;;;5.60;99.90;;;;;;5065276;28;20200;-67
2023/01/10 05:53:52;;;;;;;12.88;3.90;;;5.70;99.90;;;;;;5086333;28;20500;-67
2023/01/10 05:56:19;;;;;;;9.52;3.92;;;5.70;99.90;;;;;;5084543;28;20064;-67
2023/01/10 05:58:46;;;;;;;13.00;3.25;;;5.70;99.90;;;;;;5069050;28;20056;-67
2023/01/10 06:01:13;;;;;;;11.48;2.85;;;5.60;99.90;;;;;;5068819;28;20048;-67
2023/01/10 06:03:39;;;;;;;10.23;2.78;;;5.60;99.90;;;;;;5085487;28;20067;-67
2023/01/10 06:06:07;;;;;;;9.18;3.17;;;5.50;99.90;;;;;;5086192;28;20500;-66
2023/01/10 06:08:36;;;;;;;10.63;3.72;;;5.50;99.90;;;;;;5066800;28;20059;-66
2023/01/10 06:11:03;;;;;;;10.40;3.67;;;5.40;99.90;;;;;;5068989;28;20063;-68
2023/01/10 06:13:30;;;;;;;14.65;3.70;;;5.40;99.90;;;;;;5070968;28;20058;-66
2023/01/10 06:15:57;;;;;;;14.55;3.88;;;5.40;99.90;;;;;;5090748;28;20040;-67
2023/01/10 06:18:24;;;;;;;11.85;3.15;;;5.30;99.90;;;;;;5073969;28;20105;-67
2023/01/10 06:20:51;;;;;;;9.48;3.40;;;5.30;99.90;;;;;;5072446;28;20048;-68
2023/01/10 06:23:18;;;;;;;9.95;3.00;;;5.30;99.90;;;;;;5071351;28;20440;-68
2023/01/10 06:25:46;;;;;;;8.13;2.60;;;5.30;99.90;;;;;;5068219;28;20056;-67
2023/01/10 06:28:14;;;;;;;16.48;2.97;;;5.20;99.90;;;;;;5087632;28;20526;-68
2023/01/10 06:30:42;;;;;;;9.98;2.58;;;5.20;99.90;;;;;;5069468;28;20040;-67
2023/01/10 06:33:10;;;;;;;10.30;3.25;;;5.10;99.90;;;;;;5091309;28;20048;-68
2023/01/10 06:35:37;;;;;;;9.73;2.92;;;5.10;99.90;;;;;;5069214;28;20048;-68
2023/01/10 06:38:04;;;;;;;7.70;2.35;;;5.00;99.90;;;;;;5071889;28;20073;-68
2023/01/10 06:40:31;;;;;;;11.02;3.30;;;5.00;99.90;;;;;;5074788;28;20048;-67
2023/01/10 06:43:00;;;;;;;10.27;3.00;;;4.90;99.90;;;;;;5076191;28;20059;-67
2023/01/10 06:45:27;;;;;;;7.53;2.55;;;4.90;99.90;;;;;;5094179;28;20047;-68
2023/01/10 06:47:53;;;;;;;7.55;2.88;;;4.80;99.90;;;;;;5075043;28;20055;-68
2023/01/10 06:50:20;;;;;;;7.97;2.60;;;4.70;99.90;;;;;;5076016;28;20043;-67
2023/01/10 06:52:55;;;;;;;9.85;2.55;;;4.70;99.90;;;;;;5094144;28;20465;-68
2023/01/10 06:55:22;;;;;;;8.07;2.38;;;4.70;99.90;;;;;;5075599;28;20059;-66
2023/01/10 06:57:49;;;;;;;12.05;2.92;;;4.60;99.90;;;;;;5075302;28;20059;-67
2023/01/10 07:00:18;;;;;;;11.80;2.55;;;4.60;99.90;;;;;;5075928;28;20404;-67
2023/01/10 07:02:45;;;;;;;11.35;3.17;;;4.60;99.90;;;;;;5094093;28;20048;-67
2023/01/10 07:05:12;;;;;;;8.48;2.95;;;4.50;99.90;;;;;;5093825;28;20074;-67
2023/01/10 07:07:39;;;;;;;9.85;3.08;;;4.50;99.90;;;;;;5092329;28;20590;-67
2023/01/10 07:10:07;;;;;;;6.50;2.95;;;4.50;99.90;;;;;;5091385;28;20040;-67
2023/01/10 07:12:34;;;;;;;8.30;2.83;;;4.60;99.90;;;;;;5076215;28;20044;-67
2023/01/10 07:15:01;;;;;;;6.53;2.83;;;4.80;99.90;;;;;;5092195;28;20407;-67
2023/01/10 07:17:30;;;;;;;14.15;2.85;;;4.70;99.90;;;;;;5076762;28;20082;-67
2023/01/10 07:19:57;;;;;;;8.38;2.78;;;4.80;99.90;;;;;;5074275;28;20446;-67
2023/01/10 07:22:24;;;;;;;9.63;3.47;;;4.80;99.90;;;;;;5075981;28;20056;-67
2023/01/10 07:24:51;;;;;;;11.43;3.42;;;4.80;99.90;;;;;;5094509;28;20043;-68
2023/01/10 07:27:17;;;;;;;11.82;4.00;;;5.00;99.90;;;;;;5076410;28;20404;-68
2023/01/10 07:29:44;;;;;;;14.95;4.22;;;5.00;99.90;;;;;;5094019;28;20044;-68
2023/01/10 07:32:11;;;;;;;14.50;3.83;;;5.00;99.90;;;;;;5076351;28;20051;-69
2023/01/10 07:34:39;;;;;;;22.30;4.43;;;5.10;99.90;;;;;;5076077;28;20171;-68
2023/01/10 07:37:06;;;;;;;19.90;4.68;;;5.10;99.90;;;;;;5073330;28;20412;-68
2023/01/10 07:39:34;;;;;;;20.20;5.20;;;5.10;99.90;;;;;;5076077;28;20043;-68
2023/01/10 07:42:01;;;;;;;15.38;4.30;;;5.20;99.90;;;;;;5094147;28;20048;-68
2023/01/10 07:44:28;;;;;;;20.00;5.35;;;5.20;99.90;;;;;;5093775;28;20091;-68
2023/01/10 07:46:54;;;;;;;16.35;4.88;;;5.20;99.90;;;;;;5094247;28;20048;-68
2023/01/10 07:49:22;;;;;;;21.42;5.43;;;5.20;99.90;;;;;;5094154;28;20036;-67
2023/01/10 07:51:50;;;;;;;15.82;5.30;;;5.20;99.90;;;;;;5093570;28;20071;-67
2023/01/10 07:54:17;;;;;;;14.63;5.50;;;5.30;99.90;;;;;;5073447;28;20388;-67
2023/01/10 07:56:46;;;;;;;16.63;4.75;;;5.40;99.90;;;;;;5092546;28;20048;-68
2023/01/10 07:59:13;;;;;;;25.77;6.15;;;5.40;99.90;;;;;;5093385;28;20055;-68
2023/01/10 08:01:40;;;;;;;14.70;6.43;;;5.50;99.90;;;;;;5075941;28;20188;-69
2023/01/10 08:04:07;;;;;;;19.00;5.05;;;5.50;99.90;;;;;;5075325;28;20415;-69
2023/01/10 08:06:34;;;;;;;11.65;4.22;;;5.50;99.90;;;;;;5075733;28;20044;-68
2023/01/10 08:09:04;;;;;;;20.92;5.60;;;5.50;99.90;;;;;;5093862;28;20450;-68
2023/01/10 08:11:31;;;;;;;17.38;6.30;;;5.40;99.90;;;;;;5072644;28;20143;-68
2023/01/10 08:13:58;;;;;;;18.92;5.63;;;5.40;99.90;;;;;;5093588;28;20077;-68
2023/01/10 08:16:25;;;;;;;19.50;5.50;;;5.40;99.90;;;;;;5075615;28;20480;-67
2023/01/10 08:18:52;;;;;;;20.02;5.10;;;5.40;99.90;;;;;;5092772;28;20051;-68
2023/01/10 08:21:19;;;;;;;21.75;5.53;;;5.40;99.90;;;;;;5071925;28;20075;-68
2023/01/10 08:23:46;;;;;;;16.95;6.32;;;5.40;99.90;;;;;;5087817;28;20500;-68
2023/01/10 08:26:14;;;;;;;17.58;4.57;;;5.50;99.90;;;;;;5074740;28;20051;-68
2023/01/10 08:28:41;;;;;;;18.73;5.25;;;5.60;99.90;;;;;;5091285;28;20040;-67
2023/01/10 08:31:09;;;;;;;26.08;6.03;;;5.60;99.90;;;;;;5092322;28;20044;-67
2023/01/10 08:33:39;;;;;;;21.88;5.38;;;5.60;99.90;;;;;;5074097;28;20051;-68
2023/01/10 08:36:06;;;;;;;14.95;5.43;;;5.60;99.90;;;;;;5074921;28;20051;-67
2023/01/10 08:38:33;;;;;;;26.90;5.32;;;5.60;99.90;;;;;;5092982;28;20047;-67
2023/01/10 08:41:00;;;;;;;20.35;5.20;;;5.60;99.90;;;;;;5074321;28;20495;-68
2023/01/10 08:43:28;;;;;;;16.58;6.03;;;5.70;99.90;;;;;;5074683;28;20040;-68
2023/01/10 08:45:55;;;;;;;14.07;4.45;;;5.90;99.90;;;;;;5072127;28;20070;-69
2023/01/10 08:48:22;;;;;;;11.75;4.93;;;6.50;99.90;;;;;;5074460;28;20996;-68
2023/01/10 08:50:49;;;;;;;16.20;4.68;;;7.10;99.90;;;;;;5074975;28;20036;-68
2023/01/10 08:53:16;;;;;;;17.38;4.10;;;7.70;99.90;;;;;;5073946;28;20051;-68
2023/01/10 08:55:43;;;;;;;21.48;5.28;;;8.20;99.90;;;;;;5074849;28;20051;-70
2023/01/10 08:58:10;;;;;;;20.00;4.95;;;8.60;99.90;;;;;;5092365;28;20055;-69
2023/01/10 09:00:39;;;;;;;18.45;4.35;;;9.00;99.90;;;;;;5073920;28;20044;-69
2023/01/10 09:03:06;;;;;;;18.23;4.22;;;8.90;99.90;;;;;;5090070;28;20055;-68
2023/01/10 09:05:33;;;;;;;12.13;4.65;;;8.50;99.90;;;;;;5074666;28;20426;-68
2023/01/10 09:08:02;;;;;;;18.02;4.72;;;8.00;99.90;;;;;;5073960;28;20056;-69
2023/01/10 09:10:29;;;;;;;18.52;5.55;;;7.90;99.90;;;;;;5091943;28;20040;-70
2023/01/10 09:13:00;;;;;;;14.70;4.45;;;7.90;99.90;;;;;;5074330;28;20058;-69
2023/01/10 09:15:29;;;;;;;17.52;5.63;;;7.90;99.90;;;;;;5071959;28;20052;-68
2023/01/10 09:17:59;;;;;;;15.65;4.57;;;7.80;99.90;;;;;;5092477;28;20052;-68
2023/01/10 09:20:26;;;;;;;14.48;4.30;;;7.60;99.90;;;;;;5092508;28;20046;-68
2023/01/10 09:22:53;;;;;;;16.45;5.05;;;7.50;99.90;;;;;;5073580;28;20048;-67
2023/01/10 09:25:21;;;;;;;18.20;6.03;;;7.60;99.90;;;;;;5073876;28;20052;-67
2023/01/10 09:27:48;;;;;;;23.30;5.30;;;7.40;99.90;;;;;;5071936;28;20047;-68
2023/01/10 09:30:15;;;;;;;15.05;4.60;;;7.30;99.90;;;;;;5091596;28;20063;-68
2023/01/10 09:32:42;;;;;;;15.85;4.18;;;7.10;99.90;;;;;;5074309;28;20077;-68
2023/01/10 09:35:10;;;;;;;15.18;4.90;;;7.00;99.90;;;;;;5073352;28;20063;-67
2023/01/10 09:37:37;;;;;;;16.33;4.80;;;6.90;99.90;;;;;;5091978;28;20495;-67
2023/01/10 09:40:06;;;;;;;19.48;4.97;;;6.80;99.90;;;;;;5091830;28;20055;-68
2023/01/10 09:42:51;;;;;;;18.70;4.70;;;6.80;99.90;;;;;;5073361;28;20059;-68
2023/01/10 09:45:26;;;;;;;21.88;4.53;;;6.80;99.90;;;;;;5089539;28;20518;-68
2023/01/10 09:47:57;;;;;;;15.38;4.43;;;6.80;99.90;;;;;;5071844;28;20052;-68
2023/01/10 09:50:32;;;;;;;12.75;3.80;;;6.90;99.90;;;;;;5091339;28;20036;-67
2023/01/10 09:53:05;;;;;;;22.88;5.10;;;7.10;99.90;;;;;;5073698;28;20500;-68
2023/01/10 09:55:35;;;;;;;18.20;3.92;;;7.10;99.90;;;;;;5073822;28;20048;-68
2023/01/10 09:58:07;;;;;;;14.97;4.87;;;7.10;99.90;;;;;;5073163;28;20185;-68
2023/01/10 10:00:42;;;;;;;12.20;5.00;;;7.00;99.90;;;;;;5073760;28;20306;-68
2023/01/10 10:03:19;;;;;;;19.00;4.70;;;7.00;99.90;;;;;;5089467;28;20044;-68
2023/01/10 10:05:48;;;;;;;23.63;5.32;;;7.00;99.90;;;;;;5089470;28;20044;-68
2023/01/10 10:08:18;;;;;;;12.45;4.72;;;7.00;99.90;;;;;;5068230;28;20490;-67
2023/01/10 10:10:58;;;;;;;14.52;4.30;;;7.10;99.90;;;;;;5054604;28;20446;-68
2023/01/10 10:13:34;;;;;;;15.68;4.88;;;7.20;99.90;;;;;;5084475;28;20055;-68
2023/01/10 10:16:08;;;;;;;20.50;4.90;;;7.30;99.90;;;;;;5086598;28;20055;-67
2023/01/10 10:18:44;;;;;;;19.38;5.40;;;7.40;99.90;;;;;;5083415;28;20389;-68
2023/01/10 10:21:23;;;;;;;18.67;4.30;;;7.40;99.90;;;;;;5066345;28;20121;-69
2023/01/10 10:24:13;;;;;;;14.65;4.22;;;7.50;99.90;;;;;;5090707;28;20302;-69
2023/01/10 10:26:47;;;;;;;19.77;4.90;;;7.40;99.90;;;;;;5084604;28;20130;-68
2023/01/10 10:29:42;;;;;;;11.70;3.90;;;7.40;99.90;;;;;;5067856;28;20315;-69
2023/01/10 10:32:33;;;;;;;18.52;4.47;;;7.30;99.90;;;;;;5062525;28;20044;-68
2023/01/10 10:35:03;;;;;;;15.52;3.75;;;7.30;99.90;;;;;;5065802;28;20382;-68
2023/01/10 10:37:36;;;;;;;24.17;5.20;;;7.30;99.90;;;;;;5071470;28;20508;-68
2023/01/10 10:40:06;;;;;;;18.98;5.35;;;7.30;99.90;;;;;;5082887;28;20055;-70
2023/01/10 10:42:37;;;;;;;18.40;4.80;;;7.30;99.90;;;;;;5069743;28;20059;-66
2023/01/10 10:45:07;;;;;;;16.27;4.32;;;7.30;99.90;;;;;;5086220;28;20052;-68
2023/01/10 10:47:36;;;;;;;14.35;4.40;;;7.20;99.90;;;;;;5087250;28;20097;-68
2023/01/10 10:50:17;;;;;;;17.65;4.97;;;7.30;99.90;;;;;;5065902;28;20454;-68
2023/01/10 10:52:47;;;;;;;19.33;6.13;;;7.30;99.90;;;;;;5082075;28;20059;-68
2023/01/10 10:55:15;;;;;;;17.48;5.13;;;7.30;99.90;;;;;;5088477;28;20058;-68
2023/01/10 10:57:44;;;;;;;17.13;4.30;;;7.30;99.90;;;;;;5068505;28;20049;-67
2023/01/10 11:00:16;;;;;;;14.55;4.13;;;7.40;99.90;;;;;;5073063;28;20052;-68
2023/01/10 11:02:46;;;;;;;13.98;4.70;;;7.40;99.90;;;;;;5090718;28;20827;-67
2023/01/10 11:05:20;;;;;;;16.83;4.20;;;7.30;99.90;;;;;;5087348;28;20048;-66
2023/01/10 11:07:56;;;;;;;15.88;4.63;;;7.30;99.90;;;;;;5091728;28;20048;-69
2023/01/10 11:10:40;;;;;;;16.88;4.53;;;7.30;99.90;;;;;;5073742;28;20063;-69
2023/01/10 11:13:20;;;;;;;21.77;4.75;;;7.40;99.90;;;;;;5075842;28;20056;-68
2023/01/10 11:15:49;;;;;;;19.40;5.07;;;7.40;99.90;;;;;;5075217;28;20047;-69
2023/01/10 11:18:19;;;;;;;23.52;6.45;;;7.40;99.90;;;;;;5094557;28;20040;-70
2023/01/10 11:20:56;;;;;;;18.05;5.93;;;7.50;99.90;;;;;;5074117;28;20059;-70
2023/01/10 11:23:37;;;;;;;24.33;6.47;;;7.50;99.90;;;;;;5075030;28;20523;-68
2023/01/10 11:26:14;;;;;;;20.05;6.50;;;7.50;99.90;;;;;;5076166;28;20044;-68
2023/01/10 11:28:41;;;;;;;16.77;5.97;;;7.40;99.90;;;;;;5075890;28;20631;-68
2023/01/10 11:31:08;;;;;;;18.38;6.97;;;7.50;99.90;;;;;;5076076;28;20127;-67
2023/01/10 11:33:38;;;;;;;16.38;7.25;;;7.40;99.90;;;;;;5076544;28;20052;-69
2023/01/10 11:36:11;;;;;;;27.92;6.90;;;7.40;99.90;;;;;;5075955;28;20058;-69
2023/01/10 11:38:42;;;;;;;23.70;6.70;;;7.40;99.90;;;;;;5076340;28;20519;-71
2023/01/10 11:41:23;;;;;;;;;;;7.40;99.90;;;;;;5076495;28;20044;-68
2023/01/10 11:43:50;;;;;;;;;;;7.40;99.90;;;;;;5093314;28;19935;-68
2023/01/10 11:46:20;;;;;;;20.10;7.13;;;7.30;99.90;;;;;;5076071;28;19970;-68
2023/01/10 11:48:51;;;;;;;21.63;6.93;;;7.30;99.90;;;;;;5091440;28;20048;-69
2023/01/10 11:51:23;;;;;;;18.85;7.72;;;7.30;99.90;;;;;;5073549;28;20492;-68
2023/01/10 11:53:57;;;;;;;19.63;7.95;;;7.30;99.90;;;;;;5093901;28;20530;-68
2023/01/10 11:56:26;;;;;;;22.13;8.07;;;7.30;99.90;;;;;;5093366;28;20056;-68
2023/01/10 11:58:54;;;;;;;20.30;7.10;;;7.30;99.90;;;;;;5093843;28;20523;-68
2023/01/10 12:01:33;;;;;;;25.52;6.40;;;7.20;99.90;;;;;;5073421;28;20052;-68
2023/01/10 12:04:01;;;;;;;21.45;7.88;;;7.20;99.90;;;;;;5091290;28;20044;-68
2023/01/10 12:06:28;;;;;;;16.88;6.80;;;7.20;99.90;;;;;;5075794;28;20074;-68
2023/01/10 12:08:57;;;;;;;19.08;7.10;;;7.20;99.90;;;;;;5075974;28;20051;-68
2023/01/10 12:11:28;;;;;;;20.13;6.47;;;7.20;99.90;;;;;;5074994;28;20139;-68
2023/01/10 12:13:58;;;;;;;22.98;7.18;;;7.20;99.90;;;;;;5075561;28;20056;-68
2023/01/10 12:16:27;;;;;;;19.73;7.13;;;7.10;99.90;;;;;;5075618;28;20048;-68
2023/01/10 12:18:56;;;;;;;20.02;7.38;;;7.10;99.90;;;;;;5091119;28;20117;-67
2023/01/10 12:21:38;;;;;;;19.33;7.75;;;7.10;99.90;;;;;;5093122;28;20056;-68
2023/01/10 12:24:13;;;;;;;16.10;6.30;;;7.10;99.90;;;;;;5072757;28;20051;-69
2023/01/10 12:26:46;;;;;;;16.80;6.03;;;7.00;99.90;;;;;;5073701;28;20043;-68
2023/01/10 12:29:17;;;;;;;15.68;6.47;;;7.00;99.90;;;;;;5075402;28;20048;-69
2023/01/10 12:31:54;;;;;;;17.42;6.45;;;7.10;99.90;;;;;;5074624;28;20377;-71
2023/01/10 12:34:26;;;;;;;22.33;5.80;;;7.00;99.90;;;;;;5093308;28;20459;-70
2023/01/10 12:37:01;;;;;;;18.27;6.30;;;6.90;99.90;;;;;;5075235;28;20048;-70
2023/01/10 12:39:43;;;;;;;25.70;6.82;;;7.00;99.90;;;;;;5074639;28;20518;-69
2023/01/10 12:45:15;;;;;;;21.73;6.55;;;7.00;99.90;;;;;;5073163;28;20125;-68
2023/01/10 12:47:54;;;;;;;21.65;6.70;;;7.00;99.90;;;;;;5091889;28;20051;-68
2023/01/10 12:50:26;;;;;;;16.77;5.82;;;7.00;99.90;;;;;;5092486;28;20066;-68
2023/01/10 12:53:00;;;;;;;21.65;6.68;;;7.00;99.90;;;;;;5074720;28;20052;-69
2023/01/10 12:55:39;;;;;;;18.70;6.60;;;7.00;99.90;;;;;;5092453;28;20044;-69
2023/01/10 12:58:14;;;;;;;14.98;6.43;;;7.00;99.90;;;;;;5072993;28;20083;-69
2023/01/10 13:00:45;;;;;;;25.25;7.85;;;7.00;99.90;;;;;;5087908;28;20054;-69
2023/01/10 13:03:16;;;;;;;18.08;6.90;;;6.90;99.90;;;;;;5071898;28;20094;-68
2023/01/10 13:05:47;;;;;;;16.50;5.90;;;6.90;99.90;;;;;;5073652;28;20564;-68
2023/01/10 13:08:17;;;;;;;26.65;7.38;;;6.90;99.90;;;;;;5071781;28;20044;-67
2023/01/10 13:10:48;;;;;;;16.52;6.10;;;6.90;99.90;;;;;;5074363;28;20056;-68
2023/01/10 13:13:22;;;;;;;24.73;7.07;;;6.90;99.90;;;;;;5089505;28;20048;-68
2023/01/10 13:15:53;;;;;;;21.25;6.95;;;6.90;99.90;;;;;;5069083;28;20435;-68